Amherst, WI (54406)

6:55 AM CST on December 07, 2016 (GMT -0600)
KWIWAUPA3 | | Change Station

Elev 900 ft 44.38 °N, 89.23 °W | Updated 1 minute ago

Light Snow
Light Snow
18.1 °F
Feels Like 18 °F
N
3.0
Wind Variable Wind from NW
Gusts 3.0 mph

Today
High -- | Low -- °F
--% Chance of Precip.
Yesterday
High -- | Low -- °F
Precip. -- in
Pressure 29.90 in
Visibility 10.0 miles
Clouds Overcast 1900 ft
Windchill 18 °F
Dew Point 13 °F
Humidity 80%
Rainfall 0.00 in
Snow Depth Not available.
7:20 AM 4:17 PM
First Quarter, 52% visible
METAR KSTE 071235Z AUTO 24014G21KT 10SM -SN OVC019 M09/M12 A2990 RMK AO2 T10861119
Pressure 29.90 in
Visibility 10.0 miles
Clouds Overcast 1900 ft
Windchill 18 °F
Dew Point 13 °F
Humidity 80%
Rainfall 0.00 in
Snow Depth Not available.
7:20 AM 4:17 PM
First Quarter, 52% visible
METAR KSTE 071235Z AUTO 24014G21KT 10SM -SN OVC019 M09/M12 A2990 RMK AO2 T10861119

10-Day Weather Forecast

Almanac

Astronomy

Dec. 07, 2016 Rise Set
Actual Time
Civil Twilight
Nautical Twilight
Astronomical Twilight
Moon
Length of Visible Light
Length of Day
Tomorrow will be .
, % of the Moon is Illuminated

Today's Extremes

State Highs State Lows

Community

WunderPhotos

Upload Photos

1,956,112 photos uploaded!

WunderBlog® & News

Nearby

Air Quality

  Air Quality AQ Index Pollutant
Not available.

Snow Depth

Station Depth Elevation

Earthquake Activity

City Distance Mag. Time & Date
Minimum magnitude displayed is 2.5.

Coastal Water Temperatures

Place Temperature

Stations

Nearby Weather Stations

Station Location Temp. Windchill Dew Point Humidity Wind Precip. Elev Updated Type
                   

Watches & Warnings

There are currently no watches in effect.